Ir al Módulo  



logo_vatsim
logo_vatsur

 


NUEVO SECTOR FILE COLOMBIA
Octubre 16 de 2014

Los invitamos a descargar el nuevo SectorFile de Colombia!




Festival Cuna de Acordeones
Octubre 12 de 2014

Los esperamos a todos en Riohacha y Valledupar el próximo Viernes 17 de Octubre!




Nuevo Escenario de Bogotá Recomendado
Septiembre 26 de 2014

Los invitamos a conocer el escenario desarrollado por LR30 Scenery Design de SKBO. Vatsim Colombia lo reconoce como escenario oficial de la red.

Links:

FS9: http://www.mediafire.com/download/gfuqcb7qb8r9q9n/BOG_2014_FS9.rar
FSX: http://www.mediafire.com/download/b8831kleqc5nc13/LR30_SKBO_V2.rar




 

 
Untitled Document
SKAR 211500Z 00000KT 9999 SCT022 SCT120 25/19 A3011
SKBG 211500Z 35003KT 8000 SCT012 SCT240 23/19 A3004 RMK HZ
SKBO 211500Z VRB02KT 9999 SCT017 18/09 A3034
SKBQ 211500Z 14005KT 9999 FEW015 30/26 A2990
SKCG 211500Z VRB02KT 9999 FEW020 SCT200 31/24 A2987
SKCL 211500Z 00000KT 9000 SCT020 SCT300 26/17 A3002 RMK/HZ
SKPE 211500Z VRB02KT 9999 SCT015 23/17 A3010
SKRG 211500Z 04004KT 9999BKN018 18/12 A3033